Warning: Javascript must be enabled to use all the features on this page!


Page Loading - Please Wait...

Click to hideNews Bulletins

Peak Streamflow for the Nation

USGS 02400100 TERRAPIN CREEK AT ELLISVILLE AL

Cherokee County, Alabama
Hydrologic Unit Code 03150105
Latitude  34°03'54", Longitude  85°36'51" NAD27
Drainage area 252.00  square miles
Contributing drainage area 252.00  square miles
Gage datum 539.07 feet above NGVD29
Output formats
Table
Graph
Tab-separated file
peakfq (watstore) format
Reselect output format
Water
Year
Date Gage
Height
(feet)
Stream-
flow
(cfs)
1950 1949-11-28   24,0002,7
1963 1963-03-13 17.90 13,200
1964 1964-03-15 17.35 11,500
1965 1965-02-12 11.86 3,500
1966 1966-03-04 16.94 10,300
1967 1967-08-25 15.81 7,740
1968 1968-01-10 16.36 8,910
1969 1969-01-20 12.91 4,300
1970 1970-03-20 18.00 13,500
1971 1971-04-24 18.10 13,800
1972 1972-01-11 17.55 12,100
1973 1973-01-08 13.61 4,900
1974 1974-03-04 19.07 16,700
1975 1975-09-24 17.30 11,400
1976 1976-03-16 16.43 9,070
1977 1977-04-05 16.12 8,400
1978 1978-01-26 14.29 5,640
1979 1979-03-04 19.82 20,100
1980 1980-03-21 16.30 8,950
1981 1981-03-30 17.10 10,900
1982 1982-04-26 16.10 8,610
1983 1983-02-02 13.35 4,500
1984 1984-07-31 15.58 7,420
1985 1985-02-01 12.22 3,690
1986 1986-03-19 7.17 917
1987 1987-03-01 15.01 6,250
1988 1988-01-20 11.73 3,420
1989 1989-06-21 14.59 5,720
1990 1990-03-16 18.60 15,500
1991 1991-03-29 14.42 5,650
1992 1992-02-25 14.77 6,190
1993 1993-01-12 14.61 5,940
1994 1994-03-29 15.305 7,0002
1995 1995-03-08 15.11 6,740
1996 1995-10-05 19.10 16,900
1997 1997-05-03 14.15 5,210
1998 1998-04-09 14.41 5,480
1999 1999-01-23 12.02 3,220
2000 2000-04-04 14.62 5,720
2001 2001-03-20 15.42 6,620
2002 2002-01-25 13.85 4,920
2003 2003-03-06 15.26 6,430
2004 2004-09-17 12.52 3,710
2005 2005-03-31 13.48 4,980
2006 2006-03-21 10.89 2,650
2007 2006-11-15 10.77 2,490
2008 2008-03-04 10.55 1,770
2009 2009-01-06 15.61 8,180
2010 2009-11-11 15.96 8,790
2011 2011-03-09 15.83 8,560
2012 2012-03-03 11.13 2,620
2013 2013-07-07 13.41 4,900
2014 2014-04-07 14.91 7,020
2015 2015-01-04 15.04 7,080
2016 2016-02-24 15.97 8,650
2017 2017-04-05 11.67 3,420
2018 2018-03-11 10.99 2,840
2019 2019-02-22 14.39 5,990
2020 2020-02-13 14.24 6,820
?
  Peak Gage-Height Qualification Codes.
?
  Peak Streamflow Qualification Codes.